createdAt,value
2017-11-23T00:00:19.481Z,0.80
2017-11-23T00:02:46.995Z,0.80
2017-11-23T00:05:14.551Z,0.80
2017-11-23T00:07:42.071Z,0.70
2017-11-23T00:10:09.602Z,0.60
2017-11-23T00:12:37.144Z,0.50
2017-11-23T00:15:04.661Z,0.40
2017-11-23T00:17:32.206Z,0.30
2017-11-23T00:19:59.735Z,0.30
2017-11-23T00:22:27.263Z,0.20
2017-11-23T00:24:54.794Z,0.30
2017-11-23T00:27:22.332Z,0.30
2017-11-23T00:29:49.854Z,0.30
2017-11-23T00:32:17.387Z,0.40
2017-11-23T00:34:44.905Z,0.40
2017-11-23T00:37:12.443Z,0.50
2017-11-23T00:39:39.963Z,0.40
2017-11-23T00:42:07.517Z,0.30
2017-11-23T00:44:35.040Z,0.30
2017-11-23T00:47:03.338Z,0.30
2017-11-23T00:49:31.640Z,0.20
2017-11-23T00:51:59.158Z,0.20
2017-11-23T00:54:26.690Z,0.10
2017-11-23T00:56:54.204Z,0.10
2017-11-23T00:59:22.511Z,0.20
2017-11-23T01:01:50.035Z,0.10
2017-11-23T01:04:17.575Z,0.20
2017-11-23T01:06:45.109Z,0.20
2017-11-23T01:09:12.651Z,0.30
2017-11-23T01:11:40.923Z,0.40
2017-11-23T01:14:09.232Z,0.40
2017-11-23T01:16:36.747Z,0.40
2017-11-23T01:19:04.291Z,0.50
2017-11-23T01:21:31.808Z,0.50
2017-11-23T01:23:59.349Z,0.40
2017-11-23T01:26:26.871Z,0.40
2017-11-23T01:28:54.402Z,0.40
2017-11-23T01:31:21.923Z,0.40
2017-11-23T01:33:49.484Z,0.40
2017-11-23T01:36:17.015Z,0.40
2017-11-23T01:38:44.535Z,0.40
2017-11-23T01:41:12.834Z,0.30
2017-11-23T01:43:40.357Z,0.30
2017-11-23T01:46:07.898Z,0.10
2017-11-23T01:48:35.426Z,0.00
2017-11-23T01:51:02.968Z,0.00
2017-11-23T01:53:31.262Z,0.00
2017-11-23T01:55:59.570Z,0.10
2017-11-23T01:58:27.084Z,0.10
2017-11-23T02:00:55.392Z,-0.10
2017-11-23T02:03:22.916Z,-0.10
2017-11-23T02:05:50.456Z,-0.10
2017-11-23T02:08:17.971Z,-0.10
2017-11-23T02:10:45.540Z,-0.10
2017-11-23T02:13:13.067Z,-0.10
2017-11-23T02:15:40.594Z,-0.10
2017-11-23T02:18:08.136Z,-0.10
2017-11-23T02:20:35.659Z,-0.10
2017-11-23T02:23:03.195Z,0.00
2017-11-23T02:25:30.714Z,0.10
2017-11-23T02:27:58.246Z,0.00
2017-11-23T02:30:25.768Z,-0.10
2017-11-23T02:32:53.307Z,-0.20
2017-11-23T02:35:20.827Z,-0.20
2017-11-23T02:37:48.368Z,-0.30
2017-11-23T02:40:15.899Z,-0.30
2017-11-23T02:42:43.431Z,-0.30
2017-11-23T02:45:10.957Z,-0.20
2017-11-23T02:47:38.515Z,-0.20
2017-11-23T02:50:06.031Z,-0.10
2017-11-23T02:52:33.548Z,-0.10
2017-11-23T02:55:01.084Z,-0.10
2017-11-23T02:57:28.603Z,-0.10
2017-11-23T02:59:56.153Z,-0.10
2017-11-23T03:02:23.671Z,-0.10
2017-11-23T03:04:51.215Z,-0.10
2017-11-23T03:07:18.745Z,-0.10
2017-11-23T03:09:46.283Z,-0.10
2017-11-23T03:12:13.809Z,-0.10
2017-11-23T03:14:42.123Z,-0.10
2017-11-23T03:17:09.648Z,-0.20
2017-11-23T03:19:37.178Z,-0.20
2017-11-23T03:22:05.467Z,-0.40
2017-11-23T03:24:33.003Z,-0.40
2017-11-23T03:27:00.524Z,-0.40
2017-11-23T03:29:28.824Z,-0.40
2017-11-23T03:31:56.352Z,-0.50
2017-11-23T03:34:23.890Z,-0.40
2017-11-23T03:36:51.407Z,-0.40
2017-11-23T03:39:19.719Z,-0.40
2017-11-23T03:41:47.249Z,-0.40
2017-11-23T03:44:15.560Z,-0.30
2017-11-23T03:46:43.083Z,-0.40
2017-11-23T03:49:10.625Z,-0.30
2017-11-23T03:51:38.152Z,-0.30
2017-11-23T03:54:05.725Z,-0.30
2017-11-23T03:56:33.240Z,-0.30
2017-11-23T03:59:00.755Z,-0.30
2017-11-23T04:01:28.307Z,-0.30
2017-11-23T04:03:55.823Z,-0.30
2017-11-23T04:06:23.364Z,-0.30
2017-11-23T04:08:50.893Z,-0.40
2017-11-23T04:11:18.429Z,-0.50
2017-11-23T04:13:46.729Z,-0.50
2017-11-23T04:16:14.272Z,-0.50
2017-11-23T04:18:42.560Z,-0.50
2017-11-23T04:21:10.868Z,-0.50
2017-11-23T04:23:38.396Z,-0.50
2017-11-23T04:26:06.707Z,-0.40
2017-11-23T04:28:34.244Z,-0.50
2017-11-23T04:31:02.557Z,-0.50
2017-11-23T04:33:30.101Z,-0.50
2017-11-23T04:35:57.708Z,-0.50
2017-11-23T04:38:25.237Z,-0.50
2017-11-23T04:40:52.801Z,-0.60
2017-11-23T04:43:20.351Z,-0.60
2017-11-23T04:45:47.884Z,-0.70
2017-11-23T04:48:15.429Z,-0.60
2017-11-23T04:50:42.960Z,-0.60
2017-11-23T04:53:10.508Z,-0.70
2017-11-23T04:55:38.036Z,-0.70
2017-11-23T04:58:05.619Z,-0.70
2017-11-23T05:00:33.952Z,-0.70
2017-11-23T05:03:01.496Z,-0.70
2017-11-23T05:05:29.028Z,-0.70
2017-11-23T05:07:57.335Z,-0.80
2017-11-23T05:10:24.857Z,-0.80
2017-11-23T05:12:52.399Z,-0.80
2017-11-23T05:15:19.919Z,-0.80
2017-11-23T05:17:47.460Z,-0.80
2017-11-23T05:20:15.755Z,-0.80
2017-11-23T05:22:44.067Z,-0.80
2017-11-23T05:25:11.600Z,-0.80
2017-11-23T05:27:39.916Z,-0.70
2017-11-23T05:30:07.453Z,-0.70
2017-11-23T05:32:34.983Z,-0.70
2017-11-23T05:35:02.535Z,-0.70
2017-11-23T05:37:30.072Z,-0.70
2017-11-23T05:39:57.633Z,-0.70
2017-11-23T05:42:25.160Z,-0.60
2017-11-23T05:44:53.472Z,-0.60
2017-11-23T05:47:20.994Z,-0.60
2017-11-23T05:49:49.340Z,-0.60
2017-11-23T05:52:16.865Z,-0.70
2017-11-23T05:54:44.405Z,-0.60
2017-11-23T05:57:12.695Z,-0.60
2017-11-23T05:59:41.012Z,-0.60
2017-11-23T06:02:08.568Z,-0.60
2017-11-23T06:04:36.121Z,-0.60
2017-11-23T06:07:03.653Z,-0.50
2017-11-23T06:09:31.186Z,-0.50
2017-11-23T06:11:58.711Z,-0.50
2017-11-23T06:14:26.263Z,-0.60
2017-11-23T06:16:54.551Z,-0.70
2017-11-23T06:19:22.087Z,-0.70
2017-11-23T06:21:49.616Z,-0.70
2017-11-23T06:24:17.931Z,-0.70
2017-11-23T06:26:45.456Z,-0.70
2017-11-23T06:29:12.990Z,-0.80
2017-11-23T06:31:40.544Z,-0.80
2017-11-23T06:34:08.063Z,-0.80
2017-11-23T06:36:35.607Z,-0.80
2017-11-23T06:39:03.136Z,-0.70
2017-11-23T06:41:30.677Z,-0.70
2017-11-23T06:43:58.979Z,-0.60
2017-11-23T06:46:26.519Z,-0.60
2017-11-23T06:48:54.046Z,-0.50
2017-11-23T06:51:21.593Z,-0.50
2017-11-23T06:53:49.120Z,-0.50
2017-11-23T06:56:17.432Z,-0.40
2017-11-23T06:58:44.955Z,-0.40
2017-11-23T07:01:12.496Z,-0.30
2017-11-23T07:03:40.128Z,-0.30
2017-11-23T07:06:07.673Z,-0.20
2017-11-23T07:08:35.212Z,-0.10
2017-11-23T07:11:03.519Z,-0.10
2017-11-23T07:13:31.048Z,-0.10
2017-11-23T07:15:58.581Z,0.00
2017-11-23T07:18:26.111Z,0.10
2017-11-23T07:20:54.404Z,0.40
2017-11-23T07:23:21.951Z,0.40
2017-11-23T07:25:49.489Z,1.00
2017-11-23T07:28:18.991Z,1.80
2017-11-23T07:30:46.513Z,2.80
2017-11-23T07:33:14.060Z,3.70
2017-11-23T07:35:41.594Z,4.20
2017-11-23T07:38:09.135Z,4.30
2017-11-23T07:40:36.665Z,4.40
2017-11-23T07:43:04.216Z,4.50
2017-11-23T07:45:31.743Z,4.50
2017-11-23T07:47:59.280Z,4.20
2017-11-23T07:50:26.804Z,3.90
2017-11-23T07:52:54.344Z,3.60
2017-11-23T07:55:21.872Z,3.40
2017-11-23T07:57:49.421Z,3.20
2017-11-23T08:00:16.953Z,3.30
2017-11-23T08:02:45.268Z,4.10
2017-11-23T08:05:12.809Z,4.10
2017-11-23T08:07:40.361Z,4.60
2017-11-23T08:10:08.697Z,5.30
2017-11-23T08:12:36.238Z,5.30
2017-11-23T08:15:03.762Z,5.60
2017-11-23T08:17:32.099Z,5.50
2017-11-23T08:19:59.622Z,5.50
2017-11-23T08:22:27.908Z,4.90
2017-11-23T08:24:56.221Z,4.80
2017-11-23T08:27:23.739Z,4.80
2017-11-23T08:29:52.045Z,5.10
2017-11-23T08:32:19.562Z,5.10
2017-11-23T08:34:47.104Z,5.20
2017-11-23T08:37:14.627Z,5.50
2017-11-23T08:39:42.168Z,5.90
2017-11-23T08:42:10.464Z,5.90
2017-11-23T08:44:38.020Z,5.80
2017-11-23T08:47:06.318Z,5.50
2017-11-23T08:49:33.845Z,5.40
2017-11-23T08:52:01.380Z,5.30
2017-11-23T08:54:34.641Z,5.10
2017-11-23T08:57:02.184Z,5.10
2017-11-23T08:59:30.472Z,4.70
2017-11-23T09:01:58.780Z,4.70
2017-11-23T09:04:26.300Z,4.70
2017-11-23T09:06:53.839Z,4.90
2017-11-23T09:09:22.129Z,6.20
2017-11-23T09:11:49.679Z,6.20
2017-11-23T09:14:17.215Z,6.70
2017-11-23T09:16:44.750Z,7.50
2017-11-23T09:19:12.272Z,8.60
2017-11-23T09:21:39.803Z,9.90
2017-11-23T09:24:07.325Z,10.80
2017-11-23T09:26:34.867Z,11.40
2017-11-23T09:29:02.399Z,11.40
2017-11-23T09:31:29.955Z,10.90
2017-11-23T09:33:57.492Z,10.20
2017-11-23T09:36:25.023Z,9.60
2017-11-23T09:38:52.535Z,9.00
2017-11-23T09:41:20.833Z,8.20
2017-11-23T09:43:48.351Z,8.20
2017-11-23T09:46:15.902Z,7.90
2017-11-23T09:48:43.433Z,8.10
2017-11-23T09:51:10.971Z,8.40
2017-11-23T09:53:39.261Z,8.60
2017-11-23T09:56:06.837Z,8.50
2017-11-23T09:58:34.359Z,8.40
2017-11-23T10:01:01.900Z,8.40
2017-11-23T10:03:29.423Z,8.40
2017-11-23T10:05:56.983Z,8.30
2017-11-23T10:08:24.498Z,8.20
2017-11-23T10:10:52.077Z,8.20
2017-11-23T10:13:19.610Z,8.00
2017-11-23T10:15:47.132Z,7.70
2017-11-23T10:18:15.432Z,7.30
2017-11-23T10:20:42.965Z,7.20
2017-11-23T10:23:11.330Z,7.00
2017-11-23T10:25:38.844Z,7.00
2017-11-23T10:28:07.223Z,7.00
2017-11-23T10:30:34.741Z,6.80
2017-11-23T10:33:02.286Z,6.70
2017-11-23T10:35:29.803Z,6.70
2017-11-23T10:37:57.362Z,6.80
2017-11-23T10:40:25.643Z,6.80
2017-11-23T10:42:53.939Z,6.80
2017-11-23T10:45:21.492Z,6.80
2017-11-23T10:47:52.688Z,6.90
2017-11-23T10:50:20.236Z,6.90
2017-11-23T10:52:47.770Z,6.80
2017-11-23T10:55:15.364Z,6.70
2017-11-23T10:57:42.884Z,6.80
2017-11-23T11:00:11.191Z,6.90
2017-11-23T11:02:38.716Z,6.80
2017-11-23T11:05:06.253Z,6.90
2017-11-23T11:07:33.781Z,6.90
2017-11-23T11:10:01.333Z,6.90
2017-11-23T11:12:28.867Z,6.90
2017-11-23T11:14:56.403Z,6.80
2017-11-23T11:17:23.923Z,6.80
2017-11-23T11:19:51.472Z,6.80
2017-11-23T11:22:19.761Z,7.00
2017-11-23T11:24:48.064Z,7.10
2017-11-23T11:27:15.584Z,7.10
2017-11-23T11:29:43.127Z,7.60
2017-11-23T11:32:10.656Z,8.40
2017-11-23T11:34:38.200Z,9.40
2017-11-23T11:37:06.484Z,11.20
2017-11-23T11:39:34.793Z,11.60
2017-11-23T11:42:02.315Z,11.60
2017-11-23T11:44:30.625Z,11.30
2017-11-23T11:46:58.148Z,11.30
2017-11-23T11:49:25.692Z,10.90
2017-11-23T11:51:53.236Z,10.50
2017-11-23T11:54:20.759Z,10.20
2017-11-23T11:56:49.069Z,9.50
2017-11-23T11:59:16.585Z,9.50
2017-11-23T12:01:44.125Z,9.40
2017-11-23T12:04:11.651Z,9.20
2017-11-23T12:06:39.205Z,9.00
2017-11-23T12:09:06.732Z,8.90
2017-11-23T12:11:34.270Z,8.80
2017-11-23T12:14:13.573Z,8.70
2017-11-23T12:16:52.871Z,8.70
2017-11-23T12:19:21.352Z,8.80
2017-11-23T12:24:56.512Z,9.00
2017-11-23T12:27:24.060Z,8.90
2017-11-23T12:32:45.247Z,8.70
2017-11-23T12:35:13.542Z,8.70
2017-11-23T12:37:41.847Z,8.70
2017-11-23T12:40:09.383Z,8.70
2017-11-23T12:42:37.696Z,8.50
2017-11-23T12:45:05.216Z,8.50
2017-11-23T12:47:32.760Z,8.40
2017-11-23T12:50:00.289Z,8.40
2017-11-23T12:52:27.831Z,8.30
2017-11-23T12:54:56.120Z,8.50
2017-11-23T12:57:23.656Z,8.50
2017-11-23T12:59:51.174Z,8.60
2017-11-23T13:02:18.737Z,8.70
2017-11-23T13:04:46.266Z,8.80
2017-11-23T13:07:14.585Z,8.80
2017-11-23T13:09:42.113Z,8.80
2017-11-23T13:12:10.411Z,8.80
2017-11-23T13:14:37.953Z,8.80
2017-11-23T13:17:06.251Z,8.90
2017-11-23T13:19:33.786Z,8.90
2017-11-23T13:22:01.312Z,8.90
2017-11-23T13:24:28.858Z,8.90
2017-11-23T13:26:56.384Z,8.90
2017-11-23T13:29:24.694Z,8.90
2017-11-23T13:31:52.224Z,8.90
2017-11-23T13:34:20.532Z,9.00
2017-11-23T13:36:48.054Z,9.00
2017-11-23T13:39:15.599Z,9.00
2017-11-23T13:41:43.124Z,9.10
2017-11-23T13:44:10.667Z,9.10
2017-11-23T13:46:38.964Z,9.20
2017-11-23T13:49:06.516Z,9.20
2017-11-23T13:51:34.035Z,9.20
2017-11-23T13:54:01.569Z,9.20
2017-11-23T13:56:29.093Z,9.10
2017-11-23T13:58:57.427Z,9.00
2017-11-23T14:01:24.939Z,9.00
2017-11-23T14:03:53.228Z,9.00
2017-11-23T14:06:20.777Z,9.00
2017-11-23T14:08:49.069Z,8.90
2017-11-23T14:11:17.381Z,8.80
2017-11-23T14:13:44.904Z,8.80
2017-11-23T14:16:12.444Z,8.80
2017-11-23T14:18:39.963Z,8.70
2017-11-23T14:21:07.528Z,8.80
2017-11-23T14:23:35.044Z,8.80
2017-11-23T14:26:02.567Z,8.80
2017-11-23T14:28:30.125Z,8.70
2017-11-23T14:30:57.672Z,8.70
2017-11-23T14:33:25.216Z,8.60
2017-11-23T14:35:53.503Z,8.70
2017-11-23T14:38:21.822Z,8.70
2017-11-23T14:40:49.342Z,8.70
2017-11-23T14:43:17.649Z,8.70
2017-11-23T14:45:45.172Z,8.70
2017-11-23T14:48:12.719Z,8.70
2017-11-23T14:50:40.247Z,8.40
2017-11-23T14:53:07.790Z,8.20
2017-11-23T14:55:36.079Z,8.00
2017-11-23T14:58:03.645Z,7.90
2017-11-23T15:00:31.169Z,7.90
2017-11-23T15:02:58.695Z,7.70
2017-11-23T15:05:26.240Z,7.60
2017-11-23T15:07:53.768Z,7.60
2017-11-23T15:10:22.087Z,7.50
2017-11-23T15:12:49.614Z,7.50
2017-11-23T15:15:17.164Z,7.50
2017-11-23T15:17:44.684Z,7.50
2017-11-23T15:20:12.224Z,7.50
2017-11-23T15:22:40.515Z,7.70
2017-11-23T15:25:08.066Z,7.70
2017-11-23T15:27:36.416Z,7.50
2017-11-23T15:30:03.953Z,7.50
2017-11-23T15:32:31.481Z,7.40
2017-11-23T15:34:58.999Z,7.40
2017-11-23T15:37:26.547Z,7.40
2017-11-23T15:39:54.080Z,7.30
2017-11-23T15:42:21.620Z,7.30
2017-11-23T15:44:49.907Z,7.30
2017-11-23T15:47:18.221Z,7.30
2017-11-23T15:49:45.742Z,7.30
2017-11-23T15:52:14.057Z,7.30
2017-11-23T15:54:41.581Z,7.30
2017-11-23T15:57:09.119Z,7.20
2017-11-23T15:59:36.642Z,7.20
2017-11-23T16:02:04.184Z,7.20
2017-11-23T16:04:31.716Z,7.20
2017-11-23T16:06:59.303Z,7.20
2017-11-23T16:09:27.597Z,7.20
2017-11-23T16:11:55.900Z,7.20
2017-11-23T16:14:23.416Z,7.20
2017-11-23T16:16:50.952Z,7.20
2017-11-23T16:19:18.473Z,7.10
2017-11-23T16:21:46.041Z,7.10
2017-11-23T16:24:13.567Z,7.10
2017-11-23T16:26:41.085Z,7.10
2017-11-23T16:29:08.640Z,7.10
2017-11-23T16:31:36.160Z,7.10
2017-11-23T16:34:03.699Z,7.10
2017-11-23T16:36:32.022Z,7.00
2017-11-23T16:39:03.836Z,7.10
2017-11-23T16:41:37.296Z,7.10
2017-11-23T16:47:21.033Z,7.10
2017-11-23T16:49:54.407Z,7.10
2017-11-23T16:52:27.587Z,7.10
2017-11-23T16:55:03.665Z,7.10
2017-11-23T16:57:36.836Z,7.10
2017-11-23T17:00:10.035Z,7.10
2017-11-23T17:02:43.215Z,7.10
2017-11-23T17:05:17.282Z,7.10
2017-11-23T17:07:50.572Z,7.00
2017-11-23T17:10:23.809Z,7.00
2017-11-23T17:13:02.645Z,7.00
2017-11-23T17:15:36.625Z,7.00
2017-11-23T17:18:14.060Z,7.00
2017-11-23T17:20:42.371Z,7.00
2017-11-23T17:23:09.934Z,7.00
2017-11-23T17:25:37.467Z,7.00
2017-11-23T17:28:05.765Z,7.10
2017-11-23T17:30:33.355Z,7.10
2017-11-23T17:33:01.655Z,7.00
2017-11-23T17:35:29.243Z,7.00
2017-11-23T17:37:57.531Z,7.10
2017-11-23T17:40:25.836Z,7.10
2017-11-23T17:42:53.398Z,7.00
2017-11-23T17:45:20.944Z,7.10
2017-11-23T17:47:49.242Z,7.00
2017-11-23T17:50:16.808Z,7.00
2017-11-23T17:52:44.381Z,7.00
2017-11-23T17:55:11.952Z,7.00
2017-11-23T17:57:39.518Z,7.10
2017-11-23T18:00:07.042Z,7.10
2017-11-23T18:02:35.355Z,7.10
2017-11-23T18:05:02.876Z,7.10
2017-11-23T18:07:30.413Z,7.10
2017-11-23T18:09:57.996Z,7.10
2017-11-23T18:12:25.531Z,7.20
2017-11-23T18:14:53.092Z,7.20
2017-11-23T18:17:20.678Z,7.20
2017-11-23T18:19:48.200Z,7.20
2017-11-23T18:22:15.739Z,7.20
2017-11-23T18:24:44.028Z,7.10
2017-11-23T18:27:11.610Z,7.10
2017-11-23T18:29:39.135Z,7.10
2017-11-23T18:32:07.479Z,7.10
2017-11-23T18:34:35.004Z,7.10
2017-11-23T18:37:02.574Z,7.10
2017-11-23T18:39:30.140Z,7.10
2017-11-23T18:41:57.718Z,7.10
2017-11-23T18:44:26.059Z,7.10
2017-11-23T18:46:55.159Z,7.10
2017-11-23T18:49:24.558Z,7.10
2017-11-23T18:51:52.126Z,7.10
2017-11-23T18:54:20.476Z,7.20
2017-11-23T18:56:48.047Z,7.20
2017-11-23T18:59:15.648Z,7.30
2017-11-23T19:01:43.979Z,7.40
2017-11-23T19:04:11.518Z,7.30
2017-11-23T19:06:39.048Z,7.30
2017-11-23T19:09:07.353Z,7.30
2017-11-23T19:11:34.912Z,7.30
2017-11-23T19:14:02.452Z,7.30
2017-11-23T19:16:30.750Z,7.30
2017-11-23T19:18:58.316Z,7.20
2017-11-23T19:21:25.856Z,7.30
2017-11-23T19:23:54.189Z,7.30
2017-11-23T19:26:21.790Z,7.30
2017-11-23T19:28:49.374Z,7.30
2017-11-23T19:31:17.689Z,7.30
2017-11-23T19:33:45.217Z,7.30
2017-11-23T19:36:13.583Z,7.30
2017-11-23T19:38:41.174Z,7.20
2017-11-23T19:41:08.745Z,7.30
2017-11-23T19:43:36.337Z,7.20
2017-11-23T19:46:03.876Z,7.20
2017-11-23T19:48:31.443Z,7.20
2017-11-23T19:50:59.038Z,7.20
2017-11-23T19:53:26.616Z,7.20
2017-11-23T19:55:54.985Z,7.30
2017-11-23T19:58:22.559Z,7.30
2017-11-23T20:00:50.157Z,7.40
2017-11-23T20:03:18.491Z,7.50
2017-11-23T20:05:46.065Z,7.50
2017-11-23T20:08:13.671Z,7.50
2017-11-23T20:10:42.017Z,7.90
2017-11-23T20:13:09.562Z,7.90
2017-11-23T20:15:37.908Z,8.50
2017-11-23T20:18:05.503Z,8.50
2017-11-23T20:20:33.079Z,8.90
2017-11-23T20:23:00.674Z,9.20
2017-11-23T20:25:29.007Z,9.30
2017-11-23T20:27:56.586Z,9.30
2017-11-23T20:30:24.164Z,9.30
2017-11-23T20:32:51.770Z,9.70
2017-11-23T20:35:19.335Z,9.80
2017-11-23T20:37:46.928Z,9.80
2017-11-23T20:40:14.449Z,9.70
2017-11-23T20:42:42.822Z,9.30
2017-11-23T20:45:11.157Z,9.10
2017-11-23T20:47:38.676Z,9.10
2017-11-23T20:50:06.271Z,9.00
2017-11-23T20:52:33.843Z,8.90
2017-11-23T20:55:01.436Z,8.80
2017-11-23T20:57:29.007Z,8.80
2017-11-23T20:59:56.586Z,8.70
2017-11-23T21:02:24.868Z,8.60
2017-11-23T21:04:53.213Z,8.50
2017-11-23T21:07:20.786Z,8.60
2017-11-23T21:09:48.362Z,8.50
2017-11-23T21:12:15.887Z,8.40
2017-11-23T21:14:43.428Z,8.30
2017-11-23T21:17:11.030Z,8.30
2017-11-23T21:19:38.608Z,8.30
2017-11-23T21:22:06.186Z,8.30
2017-11-23T21:24:34.519Z,8.10
2017-11-23T21:27:02.091Z,8.10
2017-11-23T21:29:29.608Z,8.10
2017-11-23T21:31:57.196Z,8.10
2017-11-23T21:34:24.784Z,8.00
2017-11-23T21:36:52.378Z,7.90
2017-11-23T21:39:19.946Z,7.90
2017-11-23T21:41:47.591Z,7.90
2017-11-23T21:44:15.125Z,7.80
2017-11-23T21:46:42.661Z,7.90
2017-11-23T21:49:10.251Z,7.90
2017-11-23T21:51:37.821Z,7.90
2017-11-23T21:54:05.360Z,8.00
2017-11-23T21:56:32.889Z,8.00
2017-11-23T21:59:00.551Z,8.00
2017-11-23T22:01:28.076Z,8.00
2017-11-23T22:03:55.619Z,8.00
2017-11-23T22:06:23.148Z,7.90
2017-11-23T22:08:51.532Z,7.90
2017-11-23T22:11:19.063Z,7.80
2017-11-23T22:13:46.596Z,7.80
2017-11-23T22:16:14.124Z,7.80
2017-11-23T22:18:41.715Z,7.80
2017-11-23T22:21:10.042Z,7.90
2017-11-23T22:23:37.581Z,7.90
2017-11-23T22:26:05.101Z,8.00
2017-11-23T22:28:32.643Z,8.10
2017-11-23T22:31:00.213Z,8.10
2017-11-23T22:33:27.751Z,8.10
2017-11-23T22:35:55.309Z,8.10
2017-11-23T22:38:22.900Z,8.10
2017-11-23T22:40:50.468Z,8.10
2017-11-23T22:43:18.078Z,8.10
2017-11-23T22:45:46.364Z,8.00
2017-11-23T22:48:14.696Z,8.00
2017-11-23T22:50:42.286Z,8.00
2017-11-23T22:53:09.804Z,8.00
2017-11-23T22:55:37.386Z,8.00
2017-11-23T22:58:05.721Z,8.00
2017-11-23T23:00:33.297Z,8.00
2017-11-23T23:03:00.861Z,8.10
2017-11-23T23:05:28.439Z,8.10
2017-11-23T23:07:55.968Z,8.10
2017-11-23T23:10:24.301Z,8.10
2017-11-23T23:12:51.814Z,8.10
2017-11-23T23:15:20.147Z,8.10
2017-11-23T23:17:47.692Z,8.10
2017-11-23T23:20:15.216Z,8.10
2017-11-23T23:22:43.520Z,8.00
2017-11-23T23:25:11.038Z,8.00
2017-11-23T23:27:38.584Z,8.00
2017-11-23T23:30:06.898Z,8.00
2017-11-23T23:32:35.209Z,8.00
2017-11-23T23:35:02.730Z,8.00
2017-11-23T23:37:31.055Z,8.10
2017-11-23T23:39:58.578Z,8.00
2017-11-23T23:42:26.164Z,8.10
2017-11-23T23:44:54.442Z,8.10
2017-11-23T23:47:22.739Z,8.10
2017-11-23T23:49:50.263Z,8.10
2017-11-23T23:52:17.808Z,8.10
2017-11-23T23:54:45.340Z,8.10
2017-11-23T23:57:12.886Z,8.00
2017-11-23T23:59:40.423Z,8.00
